Time;durP1;ratioP1;P1;durP2;ratioP2;P2;SDS_P1;SDS_P2;PMS_P1;PMS_P2;Temp;Humidity;BMP_temperature;BMP_pressure;BME280_temperature;BME280_humidity;BME280_pressure;Samples;Min_cycle;Max_cycle;Signal;HPM_P1;HPM_P2
2021/12/17 00:00:02;;;;;;;52.05;30.27;;;;;;;;;;2064509;28;20169;-56
2021/12/17 00:01:13;;;;;;;58.78;31.02;;;;;;;;;;2063154;28;20182;-57
2021/12/17 00:03:20;;;;;;;54.00;29.75;;;;;;;;;;2073389;28;20161;-58
2021/12/17 00:05:53;;;;;;;53.75;30.10;;;;;;;;;;2072015;28;20332;-59
2021/12/17 00:06:53;;;;;;;51.42;30.30;;;;;;;;;;2071169;28;20653;-58
2021/12/17 00:07:53;;;;;;;48.65;28.88;;;;;;;;;;2066263;28;20170;-59
2021/12/17 00:08:55;;;;;;;56.25;30.98;;;;;;;;;;2064521;28;20217;-61
2021/12/17 00:09:57;;;;;;;54.35;28.20;;;;;;;;;;2073018;28;20204;-56
2021/12/17 00:10:57;;;;;;;52.58;29.92;;;;;;;;;;2073135;28;20173;-59
2021/12/17 00:11:57;;;;;;;51.70;29.73;;;;;;;;;;2072505;28;20283;-55
2021/12/17 00:12:58;;;;;;;55.85;30.38;;;;;;;;;;2073199;28;20680;-62
2021/12/17 00:13:58;;;;;;;52.95;28.85;;;;;;;;;;2067711;28;20189;-61
2021/12/17 00:14:58;;;;;;;54.47;29.90;;;;;;;;;;2063379;28;20252;-61
2021/12/17 00:15:59;;;;;;;48.03;26.85;;;;;;;;;;2065034;28;20186;-59
2021/12/17 00:17:02;;;;;;;46.13;26.55;;;;;;;;;;2073753;28;20237;-58
2021/12/17 00:18:11;;;;;;;40.72;23.83;;;;;;;;;;2064329;28;20181;-61
2021/12/17 00:19:23;;;;;;;42.67;23.92;;;;;;;;;;2050360;28;20270;-58
2021/12/17 00:20:52;;;;;;;39.60;22.75;;;;;;;;;;2064169;28;20170;-57
2021/12/17 00:40:26;;;;;;;48.35;26.83;;;;;;;;;;2064627;28;20665;-60
2021/12/17 00:46:33;;;;;;;51.22;27.77;;;;;;;;;;2058202;28;20166;-55
2021/12/17 00:49:22;;;;;;;54.42;29.10;;;;;;;;;;2061647;28;20189;-58
2021/12/17 00:50:42;;;;;;;53.15;29.02;;;;;;;;;;2064275;28;20176;-58
2021/12/17 00:52:01;;;;;;;50.30;28.50;;;;;;;;;;2070071;28;20220;-59
2021/12/17 00:53:01;;;;;;;46.72;27.20;;;;;;;;;;2064021;28;20181;-58
2021/12/17 00:54:07;;;;;;;50.47;29.42;;;;;;;;;;2057658;28;20267;-60
2021/12/17 00:55:08;;;;;;;49.13;28.15;;;;;;;;;;2055159;28;20275;-59
2021/12/17 00:56:08;;;;;;;48.22;27.08;;;;;;;;;;2056562;28;20197;-59
2021/12/17 00:57:11;;;;;;;46.95;28.33;;;;;;;;;;2063988;28;20185;-61
2021/12/17 00:58:12;;;;;;;51.42;28.17;;;;;;;;;;2072952;28;20172;-59
2021/12/17 00:59:12;;;;;;;49.22;27.48;;;;;;;;;;2069833;28;20208;-59
2021/12/17 01:00:15;;;;;;;50.83;27.95;;;;;;;;;;2072674;28;20177;-59
2021/12/17 01:01:15;;;;;;;51.65;29.23;;;;;;;;;;2064494;28;20174;-58
2021/12/17 01:02:18;;;;;;;47.78;27.05;;;;;;;;;;2076687;23;20202;-58
2021/12/17 01:03:18;;;;;;;48.65;27.67;;;;;;;;;;2061246;28;20192;-58
2021/12/17 01:04:19;;;;;;;50.70;27.70;;;;;;;;;;2057920;28;20258;-60
2021/12/17 01:05:23;;;;;;;48.42;27.17;;;;;;;;;;2063073;28;20177;-56
2021/12/17 01:06:23;;;;;;;43.85;26.85;;;;;;;;;;2065908;28;20178;-56
2021/12/17 01:07:28;;;;;;;47.33;28.58;;;;;;;;;;2054584;28;20166;-57
2021/12/17 01:08:31;;;;;;;47.50;27.10;;;;;;;;;;2051740;28;20185;-64
2021/12/17 01:09:31;;;;;;;47.05;27.58;;;;;;;;;;2052980;28;20167;-59
2021/12/17 01:10:34;;;;;;;45.53;27.10;;;;;;;;;;2052182;28;20214;-58
2021/12/17 01:11:57;;;;;;;48.05;27.42;;;;;;;;;;2062240;28;20181;-58
2021/12/17 01:13:11;;;;;;;49.53;26.25;;;;;;;;;;2054693;28;20216;-57
2021/12/17 01:14:17;;;;;;;46.80;27.13;;;;;;;;;;2051946;28;20198;-56
2021/12/17 01:15:30;;;;;;;48.78;27.10;;;;;;;;;;2053260;28;20162;-57
2021/12/17 01:16:58;;;;;;;48.92;26.30;;;;;;;;;;2054253;28;20177;-57
2021/12/17 01:18:21;;;;;;;46.15;26.42;;;;;;;;;;2051935;28;20191;-57
2021/12/17 01:24:14;;;;;;;42.90;23.08;;;;;;;;;;2025654;29;20280;-53
2021/12/17 01:25:33;;;;;;;47.83;25.98;;;;;;;;;;2027429;29;20164;-56
2021/12/17 01:36:26;;;;;;;42.08;23.52;;;;;;;;;;2050738;29;20174;-55
2021/12/17 01:42:13;;;;;;;38.55;23.20;;;;;;;;;;2048000;29;20213;-55
2021/12/17 01:43:14;;;;;;;36.95;22.30;;;;;;;;;;2049976;29;20198;-55
2021/12/17 01:44:16;;;;;;;42.17;24.40;;;;;;;;;;2057997;28;20252;-56
2021/12/17 01:45:17;;;;;;;40.38;23.48;;;;;;;;;;2057431;28;20594;-56
2021/12/17 01:46:20;;;;;;;35.50;21.13;;;;;;;;;;2050061;28;20171;-55
2021/12/17 01:47:21;;;;;;;36.25;22.95;;;;;;;;;;2051157;28;20170;-55
2021/12/17 01:48:27;;;;;;;38.20;22.30;;;;;;;;;;2050683;29;20282;-52
2021/12/17 01:56:16;;;;;;;38.75;21.52;;;;;;;;;;2059543;28;20178;-55
2021/12/17 01:59:46;;;;;;;33.35;20.63;;;;;;;;;;2052338;29;20185;-54
2021/12/17 02:00:47;;;;;;;35.17;19.58;;;;;;;;;;2048420;28;20187;-57
2021/12/17 02:01:48;;;;;;;34.58;21.05;;;;;;;;;;2062863;28;20182;-56
2021/12/17 02:02:53;;;;;;;35.13;20.63;;;;;;;;;;2052730;28;20247;-55
2021/12/17 02:04:04;;;;;;;31.20;20.60;;;;;;;;;;2044442;29;20190;-55
2021/12/17 02:05:04;;;;;;;35.33;21.48;;;;;;;;;;2048538;28;20231;-55
2021/12/17 02:06:05;;;;;;;30.98;20.17;;;;;;;;;;2056740;28;20252;-56
2021/12/17 02:07:06;;;;;;;31.83;21.27;;;;;;;;;;2058386;28;20194;-53
2021/12/17 02:08:06;;;;;;;34.35;21.17;;;;;;;;;;2047611;29;20241;-55
2021/12/17 02:20:21;;;;;;;34.08;21.70;;;;;;;;;;2039838;29;20202;-55
2021/12/17 02:32:09;;;;;;;41.28;23.90;;;;;;;;;;2034894;29;20202;-54
2021/12/17 02:33:09;;;;;;;43.67;25.10;;;;;;;;;;2025966;29;20816;-58
2021/12/17 02:34:48;;;;;;;46.35;25.02;;;;;;;;;;2040616;29;20268;-55
2021/12/17 02:35:49;;;;;;;43.10;25.27;;;;;;;;;;2039243;29;20180;-58
2021/12/17 02:36:50;;;;;;;49.40;26.55;;;;;;;;;;2037277;29;20184;-57
2021/12/17 02:38:00;;;;;;;49.15;26.75;;;;;;;;;;2044367;28;20291;-59
2021/12/17 02:45:46;;;;;;;47.75;28.30;;;;;;;;;;2057907;28;20166;-56
2021/12/17 02:46:46;;;;;;;52.88;30.58;;;;;;;;;;2044930;29;20186;-53
2021/12/17 02:47:50;;;;;;;58.47;31.17;;;;;;;;;;2040678;29;20844;-54
2021/12/17 02:48:51;;;;;;;55.80;30.35;;;;;;;;;;2047465;28;20706;-54
2021/12/17 02:49:52;;;;;;;55.30;29.65;;;;;;;;;;2049069;29;20175;-53
2021/12/17 02:50:55;;;;;;;58.63;31.92;;;;;;;;;;2053720;28;20198;-52
2021/12/17 02:51:55;;;;;;;60.20;32.55;;;;;;;;;;2052209;28;20186;-53
2021/12/17 02:52:56;;;;;;;55.92;31.23;;;;;;;;;;2053011;28;20195;-56
2021/12/17 02:53:58;;;;;;;58.45;31.05;;;;;;;;;;2057360;28;20566;-55
2021/12/17 02:54:58;;;;;;;58.72;30.65;;;;;;;;;;2057130;28;20181;-55
2021/12/17 02:56:05;;;;;;;59.97;32.25;;;;;;;;;;2057611;28;20170;-52
2021/12/17 02:57:06;;;;;;;58.40;30.63;;;;;;;;;;2056874;28;20307;-57
2021/12/17 02:58:07;;;;;;;68.60;35.10;;;;;;;;;;2057239;28;20181;-56
2021/12/17 02:59:12;;;;;;;66.20;33.30;;;;;;;;;;2060908;28;20208;-54
2021/12/17 03:00:13;;;;;;;66.03;33.20;;;;;;;;;;2049126;29;20551;-53
2021/12/17 03:01:14;;;;;;;63.38;31.10;;;;;;;;;;2048789;28;20250;-52
2021/12/17 03:02:15;;;;;;;61.53;32.25;;;;;;;;;;2057466;28;20209;-57
2021/12/17 03:03:16;;;;;;;64.50;32.00;;;;;;;;;;2058739;28;20213;-55
2021/12/17 03:04:18;;;;;;;59.53;31.27;;;;;;;;;;2057705;28;20177;-54
2021/12/17 03:05:19;;;;;;;55.45;31.05;;;;;;;;;;2057939;28;20194;-56
2021/12/17 03:06:20;;;;;;;60.33;30.65;;;;;;;;;;2057857;28;20221;-52
2021/12/17 03:07:20;;;;;;;64.53;32.47;;;;;;;;;;2056598;28;20182;-56
2021/12/17 03:08:20;;;;;;;66.45;33.30;;;;;;;;;;2056938;28;20518;-55
2021/12/17 03:09:32;;;;;;;59.28;32.42;;;;;;;;;;2057221;28;20166;-55
2021/12/17 03:10:33;;;;;;;62.63;31.08;;;;;;;;;;2057184;28;20241;-56
2021/12/17 03:11:33;;;;;;;71.63;33.60;;;;;;;;;;2048659;28;20182;-56
2021/12/17 03:12:50;;;;;;;67.28;33.47;;;;;;;;;;2048459;28;20250;-53
2021/12/17 03:13:51;;;;;;;66.15;32.97;;;;;;;;;;2058546;28;20176;-54
2021/12/17 03:15:01;;;;;;;64.95;32.13;;;;;;;;;;2052702;28;20171;-55
2021/12/17 03:16:27;;;;;;;72.45;34.05;;;;;;;;;;2055041;28;20185;-54
2021/12/17 03:18:03;;;;;;;77.47;35.00;;;;;;;;;;2050499;29;20155;-54
2021/12/17 03:19:27;;;;;;;70.43;32.90;;;;;;;;;;2057504;28;20758;-56
2021/12/17 03:24:26;;;;;;;74.47;33.85;;;;;;;;;;2055866;28;20274;-58
2021/12/17 03:25:26;;;;;;;70.55;35.65;;;;;;;;;;2050089;29;20171;-52
2021/12/17 03:26:27;;;;;;;82.10;36.58;;;;;;;;;;2057642;28;20170;-55
2021/12/17 03:27:28;;;;;;;84.93;37.20;;;;;;;;;;2057942;28;20175;-55
2021/12/17 03:28:30;;;;;;;86.00;37.45;;;;;;;;;;2062310;28;20246;-57
2021/12/17 03:29:30;;;;;;;75.53;32.35;;;;;;;;;;2062821;28;20194;-57
2021/12/17 03:30:35;;;;;;;81.03;34.67;;;;;;;;;;2055213;28;20163;-58
2021/12/17 03:31:36;;;;;;;78.53;35.47;;;;;;;;;;2062822;28;20206;-58
2021/12/17 03:32:40;;;;;;;78.53;34.47;;;;;;;;;;2058984;28;20210;-55
2021/12/17 03:33:42;;;;;;;69.32;31.33;;;;;;;;;;2057917;28;20214;-56
2021/12/17 03:34:43;;;;;;;82.13;35.47;;;;;;;;;;2049439;28;20215;-52
2021/12/17 03:35:43;;;;;;;82.65;35.53;;;;;;;;;;2048119;28;20190;-52
2021/12/17 03:36:44;;;;;;;77.70;34.00;;;;;;;;;;2056558;28;20617;-54
2021/12/17 03:37:45;;;;;;;79.75;34.40;;;;;;;;;;2058001;28;20554;-54
2021/12/17 03:38:47;;;;;;;74.70;33.55;;;;;;;;;;2056882;28;20178;-53
2021/12/17 03:39:47;;;;;;;76.85;32.20;;;;;;;;;;2049664;28;20167;-55
2021/12/17 03:40:52;;;;;;;64.50;30.60;;;;;;;;;;2046435;29;20792;-52
2021/12/17 03:42:09;;;;;;;69.78;31.95;;;;;;;;;;2051231;28;20855;-55
2021/12/17 03:43:13;;;;;;;70.93;31.95;;;;;;;;;;2041382;29;20555;-55
2021/12/17 03:44:14;;;;;;;78.25;31.60;;;;;;;;;;2035075;29;20172;-55
2021/12/17 03:45:33;;;;;;;62.17;28.17;;;;;;;;;;2051243;28;20206;-58
2021/12/17 03:46:40;;;;;;;52.28;25.23;;;;;;;;;;2057057;28;20555;-56
2021/12/17 03:47:40;;;;;;;54.60;26.52;;;;;;;;;;2056042;28;20186;-56
2021/12/17 03:48:51;;;;;;;46.67;24.65;;;;;;;;;;2057083;28;20197;-57
2021/12/17 03:49:52;;;;;;;54.35;26.75;;;;;;;;;;2043536;29;20174;-55
2021/12/17 03:50:53;;;;;;;66.90;28.17;;;;;;;;;;2048767;29;20222;-57
2021/12/17 03:52:27;;;;;;;53.33;24.98;;;;;;;;;;2049315;28;20660;-53
2021/12/17 03:53:21;;;;;;;53.63;24.58;;;;;;;;;;2051122;28;20194;-54
2021/12/17 03:54:21;;;;;;;52.22;24.30;;;;;;;;;;2059910;28;20668;-55
2021/12/17 03:55:21;;;;;;;53.47;25.25;;;;;;;;;;2052081;28;20178;-52
2021/12/17 03:56:23;;;;;;;52.35;25.88;;;;;;;;;;2057102;28;20182;-54
2021/12/17 03:57:24;;;;;;;56.55;24.33;;;;;;;;;;2059308;28;20253;-55
2021/12/17 03:58:26;;;;;;;46.22;22.83;;;;;;;;;;2057472;28;20174;-54
2021/12/17 03:59:27;;;;;;;44.00;21.58;;;;;;;;;;2057134;28;20236;-53
2021/12/17 04:00:28;;;;;;;48.35;22.05;;;;;;;;;;2048922;28;20186;-55
2021/12/17 04:01:33;;;;;;;42.05;21.13;;;;;;;;;;2050429;28;20687;-53
2021/12/17 04:02:33;;;;;;;44.53;21.15;;;;;;;;;;2060953;28;20264;-52
2021/12/17 04:03:34;;;;;;;42.63;20.52;;;;;;;;;;2052568;28;20642;-52
2021/12/17 04:04:41;;;;;;;35.00;18.80;;;;;;;;;;2057133;28;20729;-54
2021/12/17 04:06:00;;;;;;;35.92;18.10;;;;;;;;;;2057324;28;20182;-56
2021/12/17 04:07:35;;;;;;;34.33;17.65;;;;;;;;;;2028159;29;20216;-56
2021/12/17 04:08:55;;;;;;;33.95;15.65;;;;;;;;;;2031816;29;20567;-54
2021/12/17 04:10:06;;;;;;;35.25;17.80;;;;;;;;;;2042007;29;20194;-54
2021/12/17 04:11:09;;;;;;;37.05;19.15;;;;;;;;;;2041819;29;20187;-52
2021/12/17 04:12:16;;;;;;;38.75;18.38;;;;;;;;;;2048832;28;20247;-55
2021/12/17 04:13:42;;;;;;;33.00;16.45;;;;;;;;;;2058412;28;20291;-55
2021/12/17 04:14:48;;;;;;;32.80;17.90;;;;;;;;;;2052068;28;20183;-54
2021/12/17 04:15:55;;;;;;;30.63;17.25;;;;;;;;;;2055237;28;20257;-53
2021/12/17 04:17:02;;;;;;;33.28;18.85;;;;;;;;;;2059378;28;20294;-56
2021/12/17 04:18:07;;;;;;;38.15;18.20;;;;;;;;;;2056780;28;20190;-55
2021/12/17 04:19:07;;;;;;;37.97;18.73;;;;;;;;;;2049265;28;20691;-56
2021/12/17 04:20:08;;;;;;;38.90;18.75;;;;;;;;;;2055048;28;20186;-57
2021/12/17 04:21:15;;;;;;;36.22;18.70;;;;;;;;;;2048507;28;20198;-56
2021/12/17 04:22:18;;;;;;;37.38;19.42;;;;;;;;;;2049800;28;20186;-54
2021/12/17 04:23:20;;;;;;;32.00;17.35;;;;;;;;;;2050041;28;20175;-55
2021/12/17 04:24:20;;;;;;;36.58;17.83;;;;;;;;;;2054558;28;20182;-54
2021/12/17 04:25:22;;;;;;;42.75;21.40;;;;;;;;;;2048023;28;20660;-56
2021/12/17 04:26:23;;;;;;;38.28;18.27;;;;;;;;;;2043174;29;20175;-54
2021/12/17 04:27:28;;;;;;;36.38;18.38;;;;;;;;;;2041594;28;20184;-54
2021/12/17 04:28:29;;;;;;;43.38;18.50;;;;;;;;;;2045294;28;20196;-57
2021/12/17 04:29:29;;;;;;;42.47;20.17;;;;;;;;;;2049858;28;20626;-54
2021/12/17 04:30:30;;;;;;;36.95;16.75;;;;;;;;;;2048956;29;20257;-55
2021/12/17 04:31:32;;;;;;;33.03;16.45;;;;;;;;;;2049513;28;20170;-55
2021/12/17 04:32:32;;;;;;;35.00;17.88;;;;;;;;;;2048444;29;20278;-54
2021/12/17 04:33:33;;;;;;;30.60;17.20;;;;;;;;;;2058108;28;20171;-58
2021/12/17 04:34:34;;;;;;;33.67;18.02;;;;;;;;;;2040271;29;20180;-56
2021/12/17 04:35:37;;;;;;;38.08;17.10;;;;;;;;;;2044974;28;20190;-53
2021/12/17 04:36:38;;;;;;;32.38;17.95;;;;;;;;;;2048152;28;20173;-56
2021/12/17 04:37:47;;;;;;;32.10;16.90;;;;;;;;;;2051205;28;20250;-57
2021/12/17 04:38:49;;;;;;;29.27;16.80;;;;;;;;;;2056817;28;20261;-56
2021/12/17 04:39:50;;;;;;;31.02;16.55;;;;;;;;;;2056666;28;20177;-55
2021/12/17 04:40:52;;;;;;;30.08;15.55;;;;;;;;;;2056281;28;20174;-55
2021/12/17 04:42:02;;;;;;;37.40;18.85;;;;;;;;;;2049153;29;20707;-58
2021/12/17 04:43:16;;;;;;;36.00;17.00;;;;;;;;;;2049118;28;20198;-55
2021/12/17 04:44:32;;;;;;;32.47;15.90;;;;;;;;;;2054249;28;20284;-56
2021/12/17 04:45:38;;;;;;;32.55;16.23;;;;;;;;;;2048440;29;20592;-57
2021/12/17 04:47:01;;;;;;;27.13;16.13;;;;;;;;;;2041388;29;20226;-57
2021/12/17 04:57:42;;;;;;;29.45;15.75;;;;;;;;;;2052612;28;20205;-56
2021/12/17 04:58:44;;;;;;;29.73;15.80;;;;;;;;;;2048395;28;20212;-57
2021/12/17 04:59:44;;;;;;;26.33;14.70;;;;;;;;;;2041545;29;20171;-56
2021/12/17 05:00:45;;;;;;;25.77;14.75;;;;;;;;;;2048013;29;20191;-58
2021/12/17 05:01:53;;;;;;;26.35;14.43;;;;;;;;;;2056249;28;20192;-56
2021/12/17 05:02:57;;;;;;;28.45;14.98;;;;;;;;;;2057238;28;20217;-55
2021/12/17 05:03:57;;;;;;;26.13;14.63;;;;;;;;;;2056005;28;20174;-55
2021/12/17 05:05:04;;;;;;;25.55;14.23;;;;;;;;;;2048606;29;20170;-58
2021/12/17 05:06:04;;;;;;;26.60;14.43;;;;;;;;;;2043289;28;20609;-53
2021/12/17 05:07:14;;;;;;;23.70;14.23;;;;;;;;;;2049066;28;20803;-56
2021/12/17 05:08:20;;;;;;;29.33;15.02;;;;;;;;;;2058533;28;20268;-53
2021/12/17 05:09:35;;;;;;;25.38;14.05;;;;;;;;;;2057629;28;20181;-55
2021/12/17 05:18:15;;;;;;;31.15;15.60;;;;;;;;;;2050699;28;20197;-56
2021/12/17 05:18:31;;;;;;;29.25;15.32;;;;;;;;;;2043372;29;20566;-55
2021/12/17 05:19:45;;;;;;;26.42;14.57;;;;;;;;;;2037164;29;20271;-58
2021/12/17 05:20:51;;;;;;;27.02;14.55;;;;;;;;;;2043281;28;20175;-54
2021/12/17 05:21:52;;;;;;;26.52;15.90;;;;;;;;;;2056599;28;20193;-55
2021/12/17 05:22:57;;;;;;;28.13;15.82;;;;;;;;;;2056588;28;20206;-59
2021/12/17 05:23:58;;;;;;;33.35;14.77;;;;;;;;;;2057492;28;20171;-52
2021/12/17 05:24:58;;;;;;;30.92;15.18;;;;;;;;;;2048668;29;20238;-54
2021/12/17 05:26:00;;;;;;;27.52;14.68;;;;;;;;;;2040233;29;20171;-57
2021/12/17 05:27:07;;;;;;;31.05;15.52;;;;;;;;;;2041608;28;20190;-58
2021/12/17 05:28:13;;;;;;;30.13;15.05;;;;;;;;;;2049552;28;20226;-55
2021/12/17 05:29:14;;;;;;;35.20;16.30;;;;;;;;;;2056889;28;20285;-52
2021/12/17 05:30:16;;;;;;;33.03;16.33;;;;;;;;;;2049871;28;20698;-56
2021/12/17 05:31:21;;;;;;;31.40;16.23;;;;;;;;;;2050556;28;20171;-56
2021/12/17 05:32:23;;;;;;;25.30;15.05;;;;;;;;;;2048931;29;20190;-57
2021/12/17 05:33:28;;;;;;;31.95;15.85;;;;;;;;;;2041878;29;20208;-55
2021/12/17 05:34:29;;;;;;;23.38;14.18;;;;;;;;;;2049076;28;20179;-54
2021/12/17 05:35:35;;;;;;;25.50;14.00;;;;;;;;;;2056170;28;20264;-53
2021/12/17 05:36:38;;;;;;;25.70;14.30;;;;;;;;;;2060563;28;20193;-54
2021/12/17 05:37:45;;;;;;;24.75;14.63;;;;;;;;;;2048862;28;20591;-54
2021/12/17 05:38:45;;;;;;;26.83;14.30;;;;;;;;;;2040510;29;20191;-54
2021/12/17 05:39:46;;;;;;;26.02;13.93;;;;;;;;;;2049717;28;20178;-56
2021/12/17 05:40:48;;;;;;;26.65;14.95;;;;;;;;;;2056759;28;20178;-55
2021/12/17 05:41:48;;;;;;;26.52;13.63;;;;;;;;;;2049840;28;20267;-60
2021/12/17 05:43:06;;;;;;;25.83;13.85;;;;;;;;;;2048355;28;20662;-59
2021/12/17 05:44:09;;;;;;;28.88;14.65;;;;;;;;;;2040440;29;20275;-56
2021/12/17 05:46:48;;;;;;;24.83;13.52;;;;;;;;;;2023874;29;20207;-55
2021/12/17 05:47:49;;;;;;;28.73;14.45;;;;;;;;;;2052044;28;20181;-51
2021/12/17 05:48:49;;;;;;;26.70;14.15;;;;;;;;;;2056397;28;20182;-55
2021/12/17 05:49:50;;;;;;;26.65;13.63;;;;;;;;;;2056593;28;20718;-53
2021/12/17 05:50:51;;;;;;;28.15;13.82;;;;;;;;;;2050170;28;20183;-56
2021/12/17 05:51:53;;;;;;;24.35;13.40;;;;;;;;;;2059189;28;20174;-54
2021/12/17 05:52:53;;;;;;;26.02;13.35;;;;;;;;;;2056285;28;20799;-55
2021/12/17 05:53:53;;;;;;;24.65;13.38;;;;;;;;;;2056530;28;20190;-52
2021/12/17 05:54:53;;;;;;;25.25;13.65;;;;;;;;;;2057320;28;20162;-53
2021/12/17 05:55:54;;;;;;;30.67;13.73;;;;;;;;;;2058158;28;20205;-59
2021/12/17 05:56:55;;;;;;;23.98;14.13;;;;;;;;;;2055998;28;20173;-54
2021/12/17 05:57:57;;;;;;;21.05;12.65;;;;;;;;;;2047675;29;20269;-57
2021/12/17 05:58:58;;;;;;;24.67;13.00;;;;;;;;;;2039940;29;20210;-52
2021/12/17 05:59:58;;;;;;;23.10;12.88;;;;;;;;;;2048346;28;20636;-55
2021/12/17 06:00:58;;;;;;;22.20;13.18;;;;;;;;;;2044822;29;20201;-53
2021/12/17 06:02:14;;;;;;;23.88;13.95;;;;;;;;;;2035564;29;20222;-56
2021/12/17 06:03:18;;;;;;;25.23;13.50;;;;;;;;;;2045606;29;20552;-56
2021/12/17 06:04:30;;;;;;;20.95;13.30;;;;;;;;;;2041939;28;20179;-54
2021/12/17 06:05:35;;;;;;;29.58;13.45;;;;;;;;;;2045463;29;20172;-54
2021/12/17 06:06:37;;;;;;;26.75;13.90;;;;;;;;;;2049880;28;20163;-54
2021/12/17 06:07:38;;;;;;;25.67;13.68;;;;;;;;;;2056636;28;20273;-54
2021/12/17 06:08:40;;;;;;;22.80;13.25;;;;;;;;;;2056227;28;20250;-55
2021/12/17 06:09:41;;;;;;;27.63;13.85;;;;;;;;;;2055810;28;20181;-56
2021/12/17 06:10:46;;;;;;;25.08;14.07;;;;;;;;;;2048085;28;20254;-56
2021/12/17 06:11:47;;;;;;;25.88;14.50;;;;;;;;;;2048120;28;20183;-54
2021/12/17 06:12:51;;;;;;;25.48;14.55;;;;;;;;;;2054956;28;20300;-52
2021/12/17 06:13:51;;;;;;;24.35;12.85;;;;;;;;;;2058359;28;20667;-52
2021/12/17 06:14:51;;;;;;;24.55;13.23;;;;;;;;;;2060391;28;20188;-55
2021/12/17 06:15:51;;;;;;;23.50;13.10;;;;;;;;;;2058578;28;20182;-55
2021/12/17 06:16:52;;;;;;;21.95;12.57;;;;;;;;;;2041535;29;20186;-56
2021/12/17 06:18:01;;;;;;;24.15;12.95;;;;;;;;;;2039967;28;20179;-52
2021/12/17 06:19:02;;;;;;;17.80;11.88;;;;;;;;;;2054351;28;20202;-56
2021/12/17 06:20:04;;;;;;;20.58;12.00;;;;;;;;;;2056181;28;20257;-54
2021/12/17 06:21:04;;;;;;;19.88;11.80;;;;;;;;;;2055954;28;20271;-56
2021/12/17 06:22:04;;;;;;;21.63;12.13;;;;;;;;;;2055664;28;21141;-54
2021/12/17 06:23:05;;;;;;;19.02;12.35;;;;;;;;;;2060836;28;20348;-55
2021/12/17 06:24:06;;;;;;;21.20;12.68;;;;;;;;;;2056242;28;20170;-53
2021/12/17 06:25:08;;;;;;;20.27;12.43;;;;;;;;;;2056184;28;20179;-57
2021/12/17 06:26:08;;;;;;;24.00;12.70;;;;;;;;;;2048659;28;20840;-57
2021/12/17 06:27:15;;;;;;;21.70;11.68;;;;;;;;;;2048091;28;20203;-56
2021/12/17 06:28:16;;;;;;;21.48;11.55;;;;;;;;;;2054682;28;20276;-53
2021/12/17 06:29:17;;;;;;;24.45;12.55;;;;;;;;;;2050319;28;20237;-55
2021/12/17 06:30:20;;;;;;;19.23;11.80;;;;;;;;;;2055695;28;20210;-54
2021/12/17 06:31:23;;;;;;;25.08;13.13;;;;;;;;;;2054002;28;20183;-59
2021/12/17 06:32:23;;;;;;;23.50;13.48;;;;;;;;;;2048073;28;20175;-52
2021/12/17 06:33:24;;;;;;;18.45;11.90;;;;;;;;;;2039515;29;20184;-57
2021/12/17 06:34:25;;;;;;;20.75;12.40;;;;;;;;;;2047352;28;20179;-57
2021/12/17 06:35:26;;;;;;;19.05;11.60;;;;;;;;;;2057234;28;20264;-55
2021/12/17 06:36:26;;;;;;;20.83;11.13;;;;;;;;;;2057262;28;20293;-58
2021/12/17 06:37:26;;;;;;;21.10;12.20;;;;;;;;;;2048478;29;20171;-58
2021/12/17 06:38:27;;;;;;;18.95;12.43;;;;;;;;;;2049510;28;20194;-54
2021/12/17 06:39:28;;;;;;;23.75;12.48;;;;;;;;;;2051996;28;20201;-53
2021/12/17 06:40:29;;;;;;;20.23;12.38;;;;;;;;;;2045899;29;20553;-52
2021/12/17 06:41:30;;;;;;;18.92;11.20;;;;;;;;;;2053585;28;20237;-54
2021/12/17 06:42:31;;;;;;;20.55;11.18;;;;;;;;;;2049887;28;20239;-56
2021/12/17 06:43:40;;;;;;;22.08;11.70;;;;;;;;;;2050488;28;20181;-56
2021/12/17 06:44:43;;;;;;;19.95;11.02;;;;;;;;;;2050847;28;20178;-59
2021/12/17 06:45:55;;;;;;;19.60;11.05;;;;;;;;;;2050068;29;20190;-58
2021/12/17 06:47:04;;;;;;;16.35;10.88;;;;;;;;;;2052678;28;20179;-55
2021/12/17 06:48:09;;;;;;;18.63;11.10;;;;;;;;;;2058181;28;20163;-56
2021/12/17 06:49:21;;;;;;;17.30;10.98;;;;;;;;;;2057918;28;20273;-55
2021/12/17 06:59:35;;;;;;;20.15;9.68;;;;;;;;;;2055340;28;20194;-55
2021/12/17 07:09:26;;;;;;;16.35;10.27;;;;;;;;;;2065173;28;20748;-54
2021/12/17 07:10:35;;;;;;;15.35;9.20;;;;;;;;;;2062818;28;20160;-50
2021/12/17 07:22:41;;;;;;;14.55;10.05;;;;;;;;;;2055397;28;20179;-59
2021/12/17 07:32:18;;;;;;;15.07;10.48;;;;;;;;;;2059182;28;20184;-57
2021/12/17 07:33:17;;;;;;;14.07;9.73;;;;;;;;;;2064148;28;20243;-52
2021/12/17 07:34:45;;;;;;;15.07;9.07;;;;;;;;;;2056221;28;20198;-58
2021/12/17 07:35:55;;;;;;;14.55;9.27;;;;;;;;;;2066588;28;20185;-60
2021/12/17 07:38:38;;;;;;;11.65;8.77;;;;;;;;;;2063505;28;20700;-60
2021/12/17 07:39:40;;;;;;;12.52;9.10;;;;;;;;;;2066155;28;20224;-59
2021/12/17 07:40:56;;;;;;;13.32;9.63;;;;;;;;;;2063416;28;20189;-60
2021/12/17 07:41:56;;;;;;;15.73;10.65;;;;;;;;;;2041818;29;20174;-59
2021/12/17 07:43:14;;;;;;;14.25;9.88;;;;;;;;;;2058816;28;20170;-59
2021/12/17 07:44:24;;;;;;;18.88;10.75;;;;;;;;;;2063519;28;20741;-58
2021/12/17 07:45:41;;;;;;;15.60;10.48;;;;;;;;;;2062062;28;20170;-61
2021/12/17 07:46:50;;;;;;;12.07;9.63;;;;;;;;;;2064828;28;20158;-61
2021/12/17 07:47:50;;;;;;;18.35;11.27;;;;;;;;;;2077898;28;20177;-59
2021/12/17 07:49:01;;;;;;;15.75;10.15;;;;;;;;;;2064751;28;20193;-60
2021/12/17 07:50:02;;;;;;;14.30;10.05;;;;;;;;;;2052103;28;20632;-61
2021/12/17 07:51:05;;;;;;;12.80;9.63;;;;;;;;;;2071339;28;20184;-61
2021/12/17 07:52:19;;;;;;;14.70;10.43;;;;;;;;;;2055187;28;20221;-59
2021/12/17 07:53:21;;;;;;;14.15;10.05;;;;;;;;;;2054869;28;20181;-61
2021/12/17 07:54:31;;;;;;;12.48;9.18;;;;;;;;;;2061728;28;20205;-58
2021/12/17 07:55:32;;;;;;;13.02;9.27;;;;;;;;;;2059973;28;20177;-61
2021/12/17 07:56:37;;;;;;;11.85;8.93;;;;;;;;;;2069121;28;20169;-58
2021/12/17 07:57:43;;;;;;;13.40;9.73;;;;;;;;;;2059381;28;20174;-57
2021/12/17 07:58:46;;;;;;;15.45;10.55;;;;;;;;;;2046944;28;20190;-62
2021/12/17 07:59:47;;;;;;;12.23;10.15;;;;;;;;;;2055638;28;20233;-59
2021/12/17 08:00:47;;;;;;;13.63;10.20;;;;;;;;;;2048329;28;20708;-53
2021/12/17 08:01:48;;;;;;;13.40;8.95;;;;;;;;;;2043795;29;20243;-60
2021/12/17 08:02:50;;;;;;;12.50;9.93;;;;;;;;;;2059290;28;20667;-60
2021/12/17 08:04:13;;;;;;;14.82;9.55;;;;;;;;;;2067486;28;20186;-58
2021/12/17 08:05:29;;;;;;;13.63;9.73;;;;;;;;;;2063907;28;20192;-59
2021/12/17 08:06:30;;;;;;;15.40;10.05;;;;;;;;;;2070932;28;20189;-61
2021/12/17 08:07:43;;;;;;;13.90;10.23;;;;;;;;;;2066870;28;20200;-60
2021/12/17 08:08:43;;;;;;;12.80;9.95;;;;;;;;;;2057507;28;20174;-58
2021/12/17 08:09:55;;;;;;;13.52;9.35;;;;;;;;;;2063087;28;20248;-58
2021/12/17 08:10:56;;;;;;;14.48;10.38;;;;;;;;;;2067359;28;20169;-58
2021/12/17 08:11:57;;;;;;;11.13;9.65;;;;;;;;;;2068818;28;20239;-58
2021/12/17 08:13:06;;;;;;;13.75;10.05;;;;;;;;;;2064016;28;20677;-58
2021/12/17 08:14:11;;;;;;;13.15;10.00;;;;;;;;;;2064597;28;20205;-60
2021/12/17 08:15:13;;;;;;;11.15;8.90;;;;;;;;;;2057136;28;20163;-59
2021/12/17 08:24:57;;;;;;;14.40;9.48;;;;;;;;;;2056462;28;20657;-60
2021/12/17 08:28:07;;;;;;;12.35;9.43;;;;;;;;;;2060609;28;20208;-59
2021/12/17 08:31:22;;;;;;;12.98;10.35;;;;;;;;;;2062930;28;20262;-59
2021/12/17 08:32:23;;;;;;;12.80;9.85;;;;;;;;;;2054281;28;20310;-60
2021/12/17 08:33:29;;;;;;;13.20;10.32;;;;;;;;;;2059620;28;20280;-59
2021/12/17 08:34:29;;;;;;;13.20;9.75;;;;;;;;;;2066924;28;20188;-60
2021/12/17 08:35:30;;;;;;;14.05;10.27;;;;;;;;;;2053534;28;20175;-60
2021/12/17 08:36:35;;;;;;;12.32;9.82;;;;;;;;;;2047392;28;20175;-59
2021/12/17 08:37:37;;;;;;;11.70;10.02;;;;;;;;;;2056656;28;20261;-58
2021/12/17 08:38:39;;;;;;;11.88;9.27;;;;;;;;;;2057641;28;20182;-59
2021/12/17 08:39:59;;;;;;;13.93;10.35;;;;;;;;;;2057817;28;20197;-59
2021/12/17 08:41:17;;;;;;;13.25;10.05;;;;;;;;;;2064345;28;20181;-59
2021/12/17 08:42:17;;;;;;;17.23;12.57;;;;;;;;;;2064273;28;20178;-61
2021/12/17 08:43:18;;;;;;;15.23;10.82;;;;;;;;;;2057841;28;20205;-59
2021/12/17 08:44:23;;;;;;;14.48;10.38;;;;;;;;;;2056215;28;20613;-59
2021/12/17 08:45:49;;;;;;;14.77;10.70;;;;;;;;;;2035372;28;20275;-59
2021/12/17 08:47:10;;;;;;;11.90;10.10;;;;;;;;;;2066414;28;20272;-61
2021/12/17 08:48:10;;;;;;;14.07;10.27;;;;;;;;;;2067638;28;20170;-61
2021/12/17 08:49:27;;;;;;;12.90;9.98;;;;;;;;;;2057902;28;20166;-60
2021/12/17 08:50:45;;;;;;;13.90;10.32;;;;;;;;;;2069852;28;20192;-60
2021/12/17 08:51:47;;;;;;;15.30;10.95;;;;;;;;;;2069469;28;20305;-61
2021/12/17 08:52:47;;;;;;;16.20;11.88;;;;;;;;;;2041061;29;20227;-61
2021/12/17 08:53:50;;;;;;;14.48;11.43;;;;;;;;;;2049400;28;20199;-59
2021/12/17 08:54:53;;;;;;;12.98;10.75;;;;;;;;;;2057098;28;20182;-58
2021/12/17 08:55:54;;;;;;;14.18;11.43;;;;;;;;;;2046458;28;20176;-58
2021/12/17 08:56:55;;;;;;;14.07;9.82;;;;;;;;;;2059131;28;20173;-60